Time;durP1;ratioP1;P1;durP2;ratioP2;P2;SDS_P1;SDS_P2;PMS_P1;PMS_P2;Temp;Humidity;BMP_temperature;BMP_pressure;BME280_temperature;BME280_humidity;BME280_pressure;Samples;Min_cycle;Max_cycle;Signal;HPM_P1;HPM_P2
2022/11/01 00:00:51;;;;;;;64.37;57.80;;;;;;;12.53;100.00;101389.22;5055269;28;20471;-49
2022/11/01 00:03:19;;;;;;;64.90;58.10;;;;;;;12.55;100.00;101390.69;5071681;28;21038;-50
2022/11/01 00:05:47;;;;;;;64.77;57.80;;;;;;;12.58;100.00;101384.94;5073280;28;20483;-47
2022/11/01 00:08:15;;;;;;;65.00;58.60;;;;;;;12.58;100.00;101382.25;5072551;28;20466;-51
2022/11/01 00:10:43;;;;;;;66.93;59.90;;;;;;;12.60;100.00;101376.72;5073240;28;20831;-45
2022/11/01 00:13:10;;;;;;;68.10;59.60;;;;;;;12.61;100.00;101367.66;5073224;28;20441;-49
2022/11/01 00:15:38;;;;;;;64.23;57.63;;;;;;;12.61;100.00;101368.50;5073024;28;20480;-46
2022/11/01 00:18:05;;;;;;;65.33;58.23;;;;;;;12.61;100.00;101359.63;5072339;28;20466;-47
2022/11/01 00:20:33;;;;;;;66.70;59.70;;;;;;;12.61;100.00;101352.44;5068319;28;20496;-47
2022/11/01 00:23:02;;;;;;;67.00;60.37;;;;;;;12.63;100.00;101350.38;5072427;28;20465;-49
2022/11/01 00:25:30;;;;;;;68.83;60.00;;;;;;;12.65;100.00;101345.69;5073078;28;20437;-49
2022/11/01 00:27:58;;;;;;;65.27;58.43;;;;;;;12.67;100.00;101340.13;5072250;28;20474;-49
2022/11/01 00:30:26;;;;;;;69.03;61.57;;;;;;;12.64;100.00;101330.66;5072818;28;20435;-49
2022/11/01 00:32:53;;;;;;;68.80;60.17;;;;;;;12.64;100.00;101332.50;5072414;28;20496;-46
2022/11/01 00:35:21;;;;;;;70.57;60.80;;;;;;;12.64;100.00;101327.13;5072454;28;20848;-47
2022/11/01 00:37:48;;;;;;;69.80;62.80;;;;;;;12.63;100.00;101326.31;5072014;28;20519;-47
2022/11/01 00:40:17;;;;;;;72.70;62.10;;;;;;;12.63;100.00;101333.53;5063315;28;20478;-50
2022/11/01 00:42:45;;;;;;;66.70;59.50;;;;;;;12.62;100.00;101322.00;5053982;28;20443;-49
2022/11/01 00:45:12;;;;;;;67.53;60.67;;;;;;;12.63;100.00;101320.94;5055455;28;21049;-51
2022/11/01 00:47:40;;;;;;;66.57;59.60;;;;;;;12.64;100.00;101322.63;5051629;28;20463;-48
2022/11/01 00:50:08;;;;;;;68.67;59.70;;;;;;;12.66;100.00;101325.91;5061838;28;21081;-52
2022/11/01 00:52:36;;;;;;;67.23;60.10;;;;;;;12.66;100.00;101311.72;5072196;28;20430;-49
2022/11/01 00:55:04;;;;;;;71.83;61.37;;;;;;;12.70;100.00;101323.69;5072163;28;20928;-48
2022/11/01 00:57:33;;;;;;;66.30;58.67;;;;;;;12.71;100.00;101326.19;5071724;28;20508;-49
2022/11/01 01:00:00;;;;;;;66.97;59.97;;;;;;;12.72;100.00;101322.44;5072170;28;21001;-48
2022/11/01 01:02:28;;;;;;;72.47;59.87;;;;;;;12.74;100.00;101320.44;5071494;28;20465;-51
2022/11/01 01:04:55;;;;;;;70.07;62.77;;;;;;;12.77;100.00;101306.66;5072268;28;20426;-51
2022/11/01 01:07:23;;;;;;;69.10;61.50;;;;;;;12.80;100.00;101312.63;5071674;28;20467;-48
2022/11/01 01:09:50;;;;;;;66.67;60.00;;;;;;;12.79;100.00;101295.75;5072124;28;20507;-51
2022/11/01 01:12:18;;;;;;;72.03;61.13;;;;;;;12.81;100.00;101293.72;5071781;28;20997;-48
2022/11/01 01:14:47;;;;;;;71.00;63.53;;;;;;;12.83;100.00;101293.50;5071883;28;20438;-47
2022/11/01 01:17:15;;;;;;;65.83;59.57;;;;;;;12.83;100.00;101278.28;5072126;28;20504;-48
2022/11/01 01:19:42;;;;;;;69.87;62.80;;;;;;;12.85;100.00;101281.56;5070318;28;20516;-46
2022/11/01 01:22:11;;;;;;;67.87;61.03;;;;;;;12.84;100.00;101274.59;5069023;28;20466;-48
2022/11/01 01:24:44;;;;;;;67.97;60.90;;;;;;;12.82;100.00;101278.44;5071953;28;20520;-47
2022/11/01 01:27:12;;;;;;;70.27;63.03;;;;;;;12.83;100.00;101270.25;5071828;28;20500;-48
2022/11/01 01:29:40;;;;;;;72.57;63.73;;;;;;;12.80;100.00;101267.97;5071238;28;20458;-46
2022/11/01 01:32:12;;;;;;;67.33;59.60;;;;;;;12.81;100.00;101261.59;5071653;28;20431;-47
2022/11/01 01:34:39;;;;;;;69.10;62.07;;;;;;;12.80;100.00;101257.25;5071811;28;20492;-49
2022/11/01 01:37:08;;;;;;;68.70;61.53;;;;;;;12.77;100.00;101261.16;5071737;28;20457;-47
2022/11/01 01:39:36;;;;;;;70.23;62.90;;;;;;;12.78;100.00;101257.44;5067521;28;20455;-46
2022/11/01 01:42:14;;;;;;;69.87;60.87;;;;;;;12.76;100.00;101250.63;5053041;28;20871;-50
2022/11/01 01:45:14;;;;;;;67.67;60.80;;;;;;;12.78;100.00;101240.56;5051469;28;21098;-49
2022/11/01 01:47:46;;;;;;;66.43;59.70;;;;;;;12.76;100.00;101223.88;5052512;28;20892;-47
2022/11/01 01:50:19;;;;;;;68.43;60.87;;;;;;;12.75;100.00;101224.91;5061905;28;20480;-45
2022/11/01 01:52:51;;;;;;;68.83;61.90;;;;;;;12.74;100.00;101216.06;5071453;28;20453;-48
2022/11/01 01:55:24;;;;;;;68.17;60.97;;;;;;;12.73;100.00;101211.72;5071527;28;20435;-46
2022/11/01 01:57:54;;;;;;;69.10;62.03;;;;;;;12.74;100.00;101207.19;5071126;28;20523;-50
2022/11/01 02:00:22;;;;;;;70.50;62.27;;;;;;;12.77;100.00;101220.19;5071445;28;21085;-46
2022/11/01 02:02:51;;;;;;;69.03;62.20;;;;;;;12.77;100.00;101221.00;5071053;28;20570;-47
2022/11/01 02:05:26;;;;;;;69.30;61.57;;;;;;;12.78;100.00;101217.28;5071585;28;20434;-45
2022/11/01 02:07:55;;;;;;;68.70;61.60;;;;;;;12.80;100.00;101217.09;5071116;28;20465;-46
2022/11/01 02:10:23;;;;;;;68.90;62.30;;;;;;;12.82;100.00;101214.22;5071453;28;20483;-49
2022/11/01 02:12:51;;;;;;;67.77;60.60;;;;;;;12.83;100.00;101199.81;5072029;28;20487;-46
2022/11/01 02:15:25;;;;;;;70.00;62.73;;;;;;;12.83;100.00;101189.94;5075093;28;20488;-47
2022/11/01 02:18:07;;;;;;;69.47;62.57;;;;;;;12.83;100.00;101170.38;5074953;28;20474;-45
2022/11/01 02:21:00;;;;;;;70.27;61.43;;;;;;;12.80;100.00;101174.28;5070856;28;20422;-45
2022/11/01 02:23:50;;;;;;;66.57;59.97;;;;;;;12.78;100.00;101171.78;5074859;28;20496;-48
2022/11/01 02:26:50;;;;;;;67.97;61.43;;;;;;;12.78;100.00;101158.41;5075201;28;20441;-46
2022/11/01 02:29:38;;;;;;;69.93;63.03;;;;;;;12.78;100.00;101162.97;5074648;28;20808;-48
2022/11/01 02:32:17;;;;;;;67.27;60.57;;;;;;;12.77;100.00;101161.31;5074651;28;20757;-47
2022/11/01 02:34:51;;;;;;;68.57;61.67;;;;;;;12.76;100.00;101155.13;5074876;28;20936;-46
2022/11/01 02:37:26;;;;;;;70.93;63.70;;;;;;;12.76;100.00;101138.22;5074432;28;20446;-48
2022/11/01 02:40:00;;;;;;;67.97;61.10;;;;;;;12.74;100.00;101137.63;5069033;28;20435;-46
2022/11/01 02:42:31;;;;;;;70.03;62.93;;;;;;;12.75;100.00;101125.91;5058091;28;20516;-48
2022/11/01 02:45:04;;;;;;;70.57;63.67;;;;;;;12.75;100.00;101131.25;5056686;28;20428;-46
2022/11/01 02:47:34;;;;;;;71.60;63.87;;;;;;;12.75;100.00;101128.56;5054788;28;20511;-48
2022/11/01 02:50:06;;;;;;;67.97;60.80;;;;;;;12.73;100.00;101120.72;5057220;28;20840;-48
2022/11/01 02:52:38;;;;;;;70.03;61.87;;;;;;;12.75;100.00;101121.34;5059645;28;20410;-47
2022/11/01 02:55:28;;;;;;;70.77;63.63;;;;;;;12.72;100.00;101118.28;5074741;28;20847;-48
2022/11/01 02:57:58;;;;;;;70.67;63.40;;;;;;;12.72;100.00;101127.09;5074227;28;20805;-45
2022/11/01 03:00:28;;;;;;;71.47;63.03;;;;;;;12.72;100.00;101107.56;5074531;28;20422;-47
2022/11/01 03:03:04;;;;;;;71.33;63.63;;;;;;;12.73;100.00;101104.69;5074184;28;20473;-50
2022/11/01 03:05:40;;;;;;;72.63;64.87;;;;;;;12.73;100.00;101117.22;5074648;28;20437;-47
2022/11/01 03:08:12;;;;;;;72.30;64.97;;;;;;;12.74;100.00;101110.84;5073927;28;20462;-50
2022/11/01 03:10:50;;;;;;;73.90;66.40;;;;;;;12.73;100.00;101101.16;5074312;28;20488;-48
2022/11/01 03:13:27;;;;;;;73.43;66.20;;;;;;;12.71;100.00;101101.38;5074207;28;20927;-46
2022/11/01 03:16:05;;;;;;;71.67;64.87;;;;;;;12.71;100.00;101093.34;5074253;28;20887;-49
2022/11/01 03:18:38;;;;;;;77.07;69.63;;;;;;;12.71;100.00;101096.03;5073658;28;21014;-47
2022/11/01 03:21:15;;;;;;;76.00;68.10;;;;;;;12.71;100.00;101104.06;5070030;28;20427;-46
2022/11/01 03:23:47;;;;;;;73.03;65.13;;;;;;;12.70;100.00;101089.03;5074292;28;20535;-48
2022/11/01 03:26:19;;;;;;;71.70;64.23;;;;;;;12.68;100.00;101087.59;5073196;28;21160;-47
2022/11/01 03:28:51;;;;;;;73.40;66.20;;;;;;;12.63;100.00;101077.47;5073569;28;20462;-51
2022/11/01 03:31:23;;;;;;;73.20;66.00;;;;;;;12.62;100.00;101069.66;5073841;28;20466;-52
2022/11/01 03:33:56;;;;;;;78.03;69.80;;;;;;;12.61;100.00;101063.47;5073883;28;20434;-49
2022/11/01 03:36:30;;;;;;;76.03;68.77;;;;;;;12.59;100.00;101057.50;5073624;28;20963;-51
2022/11/01 03:39:02;;;;;;;73.57;66.33;;;;;;;12.60;100.00;101059.16;5073392;28;20808;-51
2022/11/01 03:41:34;;;;;;;76.47;69.30;;;;;;;12.58;100.00;101058.53;5066635;28;20468;-50
2022/11/01 03:44:03;;;;;;;76.60;68.73;;;;;;;12.57;100.00;101050.72;5055998;28;20467;-48
2022/11/01 03:46:31;;;;;;;77.03;69.10;;;;;;;12.57;100.00;101051.53;5054193;28;21232;-47
2022/11/01 03:49:00;;;;;;;79.23;71.00;;;;;;;12.56;100.00;101055.25;5055343;28;20988;-49
2022/11/01 03:51:27;;;;;;;76.23;68.47;;;;;;;12.54;100.00;101049.28;5059719;28;20435;-49
2022/11/01 03:53:55;;;;;;;77.43;69.53;;;;;;;12.56;100.00;101046.38;5073315;28;20491;-48
2022/11/01 03:56:22;;;;;;;76.70;68.70;;;;;;;12.53;100.00;101039.59;5073407;28;20508;-53
2022/11/01 03:58:50;;;;;;;78.27;70.53;;;;;;;12.53;100.00;101034.25;5072995;28;20454;-49
2022/11/01 04:01:18;;;;;;;80.20;72.30;;;;;;;12.54;100.00;101043.09;5073203;28;20430;-50
2022/11/01 04:03:45;;;;;;;74.53;67.07;;;;;;;12.54;100.00;101038.56;5073099;28;20474;-48
2022/11/01 04:06:14;;;;;;;81.27;73.40;;;;;;;12.53;100.00;101034.25;5073377;28;20456;-49
2022/11/01 04:08:42;;;;;;;81.63;73.00;;;;;;;12.53;100.00;101038.75;5072900;28;20462;-53
2022/11/01 04:11:09;;;;;;;78.47;71.10;;;;;;;12.54;100.00;101032.41;5072903;28;20434;-46
2022/11/01 04:13:37;;;;;;;76.83;69.43;;;;;;;12.53;100.00;101018.19;5073051;28;20426;-45
2022/11/01 04:21:37;;;;;;;79.30;71.70;;;;;;;12.54;100.00;101008.31;5068363;28;20484;-48
2022/11/01 04:24:05;;;;;;;78.50;71.17;;;;;;;12.54;100.00;101008.31;5071430;28;20471;-48
2022/11/01 04:26:34;;;;;;;80.23;72.80;;;;;;;12.54;100.00;101011.00;5072395;28;20458;-45
2022/11/01 04:29:01;;;;;;;81.67;73.30;;;;;;;12.54;100.00;101003.81;5072249;28;20503;-46
2022/11/01 04:31:32;;;;;;;80.47;72.33;;;;;;;12.54;100.00;100994.94;5072490;28;20936;-46
2022/11/01 04:34:01;;;;;;;74.03;66.90;;;;;;;12.53;100.00;100990.63;5071565;28;20426;-51
2022/11/01 04:36:28;;;;;;;76.90;69.10;;;;;;;12.53;100.00;100998.63;5072516;28;20450;-49
2022/11/01 04:38:58;;;;;;;79.20;71.30;;;;;;;12.54;100.00;100992.28;5071997;28;20516;-49
2022/11/01 04:41:27;;;;;;;79.70;71.40;;;;;;;12.57;100.00;100999.91;5072239;28;20993;-49
2022/11/01 04:43:56;;;;;;;80.43;72.60;;;;;;;12.57;100.00;101014.06;5072463;28;20486;-47
2022/11/01 04:46:24;;;;;;;78.57;70.50;;;;;;;12.59;100.00;101011.22;5072476;28;20466;-52
2022/11/01 04:48:51;;;;;;;76.70;69.20;;;;;;;12.60;100.00;101005.63;5071974;28;20458;-50
2022/11/01 04:51:19;;;;;;;75.83;67.97;;;;;;;12.62;100.00;101006.28;5072091;28;20434;-49
2022/11/01 04:53:47;;;;;;;75.93;68.17;;;;;;;12.66;100.00;100999.47;5072218;28;20435;-52
2022/11/01 04:56:15;;;;;;;78.50;70.20;;;;;;;12.67;100.00;100989.59;5072384;28;20438;-51
2022/11/01 04:58:43;;;;;;;76.10;68.90;;;;;;;12.69;100.00;100985.69;5071888;28;20508;-52
2022/11/01 05:01:14;;;;;;;72.53;65.30;;;;;;;12.71;100.00;100997.03;5071996;28;20783;-50
2022/11/01 05:03:42;;;;;;;74.27;66.80;;;;;;;12.73;100.00;100994.97;5072024;28;20524;-51
2022/11/01 05:06:10;;;;;;;72.90;65.50;;;;;;;12.75;100.00;100984.06;5071925;28;20484;-48
2022/11/01 05:08:37;;;;;;;75.33;67.53;;;;;;;12.76;100.00;100985.69;5071720;28;20463;-51
2022/11/01 05:11:05;;;;;;;78.30;67.40;;;;;;;12.77;100.00;100988.19;5071889;28;20438;-51
2022/11/01 05:13:34;;;;;;;74.53;67.33;;;;;;;12.80;100.00;100988.78;5072003;28;20936;-50
2022/11/01 05:16:03;;;;;;;75.00;67.60;;;;;;;12.82;100.00;100984.06;5072119;28;20431;-49
2022/11/01 05:18:47;;;;;;;77.53;68.10;;;;;;;12.82;100.00;100984.06;5071639;28;20461;-51
2022/11/01 05:21:15;;;;;;;77.30;69.87;;;;;;;12.84;100.00;100972.13;5067200;28;20435;-48
2022/11/01 05:23:43;;;;;;;79.23;70.50;;;;;;;12.86;100.00;100974.59;5071735;28;20525;-46
2022/11/01 05:26:11;;;;;;;82.80;72.20;;;;;;;12.85;100.00;100978.28;5071796;28;20492;-45
2022/11/01 05:28:40;;;;;;;76.67;69.00;;;;;;;12.85;100.00;100963.06;5071339;28;20463;-46
2022/11/01 05:31:07;;;;;;;81.00;69.37;;;;;;;12.86;100.00;100969.25;5071455;28;20430;-51
2022/11/01 05:33:35;;;;;;;79.53;72.40;;;;;;;12.86;100.00;100970.06;5071760;28;20435;-46
2022/11/01 05:36:02;;;;;;;77.33;69.13;;;;;;;12.85;100.00;100962.22;5071810;28;20430;-45
2022/11/01 05:38:30;;;;;;;76.60;68.80;;;;;;;12.83;100.00;100966.97;5071229;28;20454;-46
2022/11/01 05:40:57;;;;;;;78.93;70.80;;;;;;;12.84;100.00;100964.09;5071530;28;20492;-48
2022/11/01 05:43:25;;;;;;;79.40;71.30;;;;;;;12.85;100.00;100970.25;5071529;28;20509;-53
2022/11/01 05:45:54;;;;;;;76.03;68.40;;;;;;;12.85;100.00;100964.91;5071398;28;20997;-51
2022/11/01 05:48:21;;;;;;;86.17;71.67;;;;;;;12.84;100.00;100956.06;5070672;28;21229;-51
2022/11/01 05:50:49;;;;;;;77.77;69.70;;;;;;;12.85;100.00;100965.72;5071562;28;20433;-51
2022/11/01 05:53:16;;;;;;;78.73;70.33;;;;;;;12.86;100.00;100958.53;5071671;28;20431;-50
2022/11/01 05:55:44;;;;;;;81.13;72.83;;;;;;;12.86;100.00;100969.25;5071497;28;20487;-50
2022/11/01 05:58:12;;;;;;;79.03;70.83;;;;;;;12.87;100.00;100969.03;5070838;28;20466;-51
2022/11/01 06:00:39;;;;;;;82.70;74.47;;;;;;;12.88;100.00;100965.31;5071344;28;20434;-49
2022/11/01 06:03:08;;;;;;;75.53;68.17;;;;;;;12.89;100.00;100958.94;5071457;28;20438;-49
2022/11/01 06:05:37;;;;;;;78.37;70.33;;;;;;;12.90;100.00;100963.28;5071383;28;20430;-47
2022/11/01 06:08:05;;;;;;;78.77;70.90;;;;;;;12.90;100.00;100959.78;5070863;28;20466;-48
2022/11/01 06:10:34;;;;;;;81.87;73.07;;;;;;;12.93;100.00;100954.00;5071326;28;20438;-50
2022/11/01 06:13:01;;;;;;;81.57;72.67;;;;;;;12.94;100.00;100947.59;5070997;28;20439;-51
2022/11/01 06:15:29;;;;;;;82.40;73.50;;;;;;;12.95;100.00;100959.97;5071422;28;20506;-48
2022/11/01 06:18:04;;;;;;;79.90;70.97;;;;;;;12.96;100.00;100958.94;5070851;28;20467;-47
2022/11/01 06:20:35;;;;;;;81.10;72.87;;;;;;;12.97;100.00;100963.25;5066737;28;20505;-49
2022/11/01 06:23:08;;;;;;;84.40;74.37;;;;;;;12.99;100.00;100961.22;5071242;28;20419;-53
2022/11/01 06:25:36;;;;;;;76.07;68.17;;;;;;;12.98;100.00;100954.22;5071157;28;20440;-54
2022/11/01 06:28:04;;;;;;;80.47;72.43;;;;;;;12.99;100.00;100958.53;5070646;28;20987;-46
2022/11/01 06:30:31;;;;;;;76.23;68.73;;;;;;;13.00;100.00;100942.25;5071350;28;20458;-50
2022/11/01 06:33:00;;;;;;;80.60;72.50;;;;;;;13.02;100.00;100958.13;5070961;28;20442;-48
2022/11/01 06:35:28;;;;;;;81.30;72.93;;;;;;;13.06;100.00;100956.66;5071062;28;20484;-49
2022/11/01 06:38:02;;;;;;;77.40;69.03;;;;;;;13.04;100.00;100962.25;5070420;28;20461;-53
2022/11/01 06:40:30;;;;;;;79.67;71.70;;;;;;;13.06;100.00;100962.84;5071136;28;20426;-47
2022/11/01 06:42:59;;;;;;;79.07;71.07;;;;;;;13.09;100.00;100946.41;5070873;28;20499;-48
2022/11/01 06:45:28;;;;;;;79.87;71.67;;;;;;;13.09;100.00;100954.44;5070954;28;20474;-51
2022/11/01 06:47:55;;;;;;;79.03;71.10;;;;;;;13.12;100.00;100958.53;5070364;28;20500;-47
2022/11/01 06:50:24;;;;;;;80.30;72.47;;;;;;;13.13;100.00;100954.84;5070736;28;20483;-46
2022/11/01 06:52:51;;;;;;;81.97;73.77;;;;;;;13.15;100.00;100958.13;5070864;28;20839;-49
2022/11/01 06:55:20;;;;;;;81.60;73.27;;;;;;;13.18;100.00;100955.03;5071082;28;20426;-51
2022/11/01 06:57:53;;;;;;;78.63;70.30;;;;;;;13.19;100.00;100954.84;5070416;28;20470;-52
2022/11/01 07:00:21;;;;;;;80.77;72.90;;;;;;;13.23;100.00;100960.59;5072403;28;20426;-50
2022/11/01 07:02:48;;;;;;;78.67;70.47;;;;;;;13.26;100.00;100961.00;5074658;28;20437;-50
2022/11/01 07:05:16;;;;;;;83.83;72.60;;;;;;;13.29;100.00;100962.44;5074657;28;20470;-46
2022/11/01 07:07:44;;;;;;;78.10;70.40;;;;;;;13.28;100.00;100956.28;5073979;28;20474;-49
2022/11/01 07:10:11;;;;;;;82.70;74.20;;;;;;;13.32;100.00;100960.16;5074352;28;20434;-48
2022/11/01 07:12:40;;;;;;;87.33;77.93;;;;;;;13.35;100.00;100955.44;5074027;28;20430;-47
2022/11/01 07:15:09;;;;;;;90.83;82.37;;;;;;;13.36;100.00;100962.41;5074196;28;20448;-46
2022/11/01 07:17:37;;;;;;;87.83;79.80;;;;;;;13.36;100.00;100971.28;5073639;28;20458;-48
2022/11/01 07:20:05;;;;;;;87.03;79.33;;;;;;;13.37;100.00;100975.63;5069745;28;20848;-49
2022/11/01 07:22:33;;;;;;;86.73;79.03;;;;;;;13.38;100.00;100971.88;5073708;28;20932;-46
2022/11/01 07:25:00;;;;;;;89.77;82.13;;;;;;;13.41;100.00;100968.00;5073972;28;20469;-49
2022/11/01 07:27:28;;;;;;;86.23;78.53;;;;;;;13.43;100.00;100976.63;5073482;28;20507;-49
2022/11/01 07:29:57;;;;;;;87.87;79.50;;;;;;;13.46;100.00;100968.19;5073826;28;20427;-49
2022/11/01 07:32:24;;;;;;;91.30;82.10;;;;;;;13.49;100.00;100970.44;5073863;28;20430;-51
2022/11/01 07:34:52;;;;;;;84.37;76.77;;;;;;;13.54;100.00;100970.63;5074034;28;20781;-47
2022/11/01 07:37:20;;;;;;;84.93;77.37;;;;;;;13.58;100.00;100961.97;5073299;28;21033;-47
2022/11/01 07:39:47;;;;;;;80.20;73.13;;;;;;;13.64;100.00;100962.97;5073835;28;20525;-51
2022/11/01 07:42:15;;;;;;;85.73;78.17;;;;;;;13.71;100.00;100963.75;5073401;28;20945;-51
2022/11/01 07:44:44;;;;;;;84.83;76.70;;;;;;;13.73;100.00;100964.38;5073783;28;20519;-49
2022/11/01 07:47:13;;;;;;;84.10;75.70;;;;;;;13.77;100.00;100969.09;5073549;28;20462;-50
2022/11/01 07:49:41;;;;;;;77.23;70.03;;;;;;;13.77;100.00;100958.38;5073112;28;20466;-51
2022/11/01 07:52:08;;;;;;;84.40;77.27;;;;;;;13.78;100.00;100967.25;5073231;28;20487;-50
2022/11/01 07:54:36;;;;;;;83.07;75.63;;;;;;;13.79;100.00;100972.41;5073410;28;20435;-48
2022/11/01 07:57:03;;;;;;;78.90;71.80;;;;;;;13.82;100.00;100974.66;5073164;28;20499;-49
2022/11/01 07:59:31;;;;;;;80.17;73.03;;;;;;;13.83;100.00;100973.63;5072944;28;20470;-46
2022/11/01 08:01:58;;;;;;;81.47;74.30;;;;;;;13.88;100.00;100975.69;5073241;28;20434;-51
2022/11/01 08:04:33;;;;;;;76.07;68.77;;;;;;;13.94;100.00;100984.72;5073212;28;20477;-48
2022/11/01 08:07:00;;;;;;;76.17;68.67;;;;;;;13.99;100.00;100983.06;5073195;28;20496;-48
2022/11/01 08:09:28;;;;;;;75.23;68.80;;;;;;;14.00;100.00;100975.84;5072590;28;20469;-48
2022/11/01 08:11:56;;;;;;;74.07;67.37;;;;;;;14.05;100.00;100986.72;5072738;28;20484;-46
2022/11/01 08:14:23;;;;;;;79.07;71.93;;;;;;;14.07;100.00;100988.16;5073281;28;20659;-47
2022/11/01 08:16:54;;;;;;;69.67;63.60;;;;;;;14.09;100.00;100983.44;5073027;28;20858;-48
2022/11/01 08:19:22;;;;;;;72.07;65.97;;;;;;;14.12;100.00;100987.53;5072496;28;20858;-49
2022/11/01 08:21:51;;;;;;;74.53;68.03;;;;;;;14.13;100.00;100989.16;5068013;28;20434;-46
2022/11/01 08:24:18;;;;;;;76.10;69.13;;;;;;;14.15;100.00;100985.25;5072927;28;20499;-46
2022/11/01 08:26:46;;;;;;;73.20;67.13;;;;;;;14.23;100.00;100981.50;5072641;28;20454;-49
2022/11/01 08:29:13;;;;;;;75.07;68.47;;;;;;;14.31;100.00;100982.06;5072334;28;20466;-47
2022/11/01 08:31:41;;;;;;;74.00;67.70;;;;;;;14.45;100.00;100982.84;5072600;28;20482;-47
2022/11/01 08:34:09;;;;;;;71.53;65.10;;;;;;;14.59;100.00;100986.25;5072732;28;20427;-46
2022/11/01 08:36:43;;;;;;;68.50;62.00;;;;;;;14.73;100.00;100983.25;5072520;28;20453;-48
2022/11/01 08:39:12;;;;;;;68.63;62.87;;;;;;;14.86;100.00;100971.59;5072055;28;20507;-50
2022/11/01 08:41:39;;;;;;;64.67;59.33;;;;;;;15.00;100.00;100985.72;5072239;28;20434;-45
2022/11/01 08:44:07;;;;;;;67.63;62.07;;;;;;;15.08;100.00;100988.16;5072499;28;20438;-50
2022/11/01 08:46:35;;;;;;;68.20;61.73;;;;;;;15.13;100.00;100986.47;5072191;28;20547;-45
2022/11/01 08:49:02;;;;;;;65.40;59.47;;;;;;;15.19;100.00;100990.13;5071846;28;20466;-50
2022/11/01 08:51:31;;;;;;;60.53;55.13;;;;;;;15.20;100.00;100981.03;5072242;28;20430;-47
2022/11/01 08:53:59;;;;;;;60.13;55.33;;;;;;;15.22;100.00;100995.06;5072202;28;20989;-48
2022/11/01 08:56:28;;;;;;;61.50;56.60;;;;;;;15.21;100.00;100996.91;5072083;28;20446;-47
2022/11/01 08:58:56;;;;;;;61.60;56.70;;;;;;;15.23;100.00;100997.50;5071706;28;20457;-45
2022/11/01 09:01:25;;;;;;;61.07;55.50;;;;;;;15.34;100.00;100998.66;5071911;28;20434;-43
2022/11/01 09:03:56;;;;;;;61.07;56.17;;;;;;;15.47;100.00;101003.97;5072303;28;20441;-51
2022/11/01 09:06:24;;;;;;;58.03;53.27;;;;;;;15.72;100.00;101006.56;5071910;28;20979;-50
2022/11/01 09:08:52;;;;;;;53.50;49.40;;;;;;;15.96;100.00;100998.44;5071577;28;20462;-46
2022/11/01 09:11:19;;;;;;;55.97;51.60;;;;;;;16.17;100.00;100989.06;5071797;28;20449;-50
2022/11/01 09:13:49;;;;;;;55.83;51.50;;;;;;;16.55;100.00;101002.22;5072167;28;20439;-50
2022/11/01 09:16:17;;;;;;;51.43;47.23;;;;;;;16.86;100.00;100999.28;5071868;28;20483;-49
2022/11/01 09:18:44;;;;;;;51.70;48.03;;;;;;;17.10;100.00;100992.03;5071468;28;21101;-45
2022/11/01 09:21:12;;;;;;;52.37;47.57;;;;;;;17.35;100.00;100995.31;5066995;28;20946;-48
2022/11/01 09:23:40;;;;;;;49.93;46.30;;;;;;;17.52;100.00;100998.97;5071255;28;20434;-51
2022/11/01 09:26:10;;;;;;;50.63;46.80;;;;;;;17.68;100.00;101000.16;5071762;28;20478;-48
2022/11/01 09:28:38;;;;;;;48.60;45.33;;;;;;;17.67;100.00;101002.03;5071315;28;20458;-48
2022/11/01 09:31:09;;;;;;;49.60;46.27;;;;;;;17.65;100.00;101000.63;5071724;28;20801;-47
2022/11/01 09:33:54;;;;;;;47.10;44.00;;;;;;;17.54;100.00;101001.41;5071916;28;20789;-50
2022/11/01 09:36:22;;;;;;;48.33;45.07;;;;;;;17.46;100.00;101010.69;5071643;28;20480;-48
2022/11/01 09:38:50;;;;;;;49.73;46.53;;;;;;;17.32;100.00;101014.69;5071278;28;20809;-48
2022/11/01 09:41:27;;;;;;;47.47;44.10;;;;;;;17.27;100.00;101013.72;5071319;28;20434;-48
2022/11/01 09:43:57;;;;;;;46.30;43.13;;;;;;;17.21;100.00;101023.56;5071899;28;20422;-51
2022/11/01 09:46:30;;;;;;;45.70;42.57;;;;;;;17.14;100.00;101020.16;5071338;28;20477;-47
2022/11/01 09:49:01;;;;;;;44.70;41.80;;;;;;;17.14;100.00;101025.56;5071165;28;20462;-50
2022/11/01 09:51:29;;;;;;;44.43;41.40;;;;;;;17.14;100.00;101028.25;5071210;28;20431;-47
2022/11/01 09:54:03;;;;;;;41.63;38.93;;;;;;;16.99;100.00;101025.19;5071759;28;20430;-47
2022/11/01 09:56:40;;;;;;;43.37;39.33;;;;;;;17.03;100.00;101035.25;5071645;28;20918;-46
2022/11/01 09:59:18;;;;;;;42.60;40.10;;;;;;;16.99;100.00;101041.34;5071065;28;20889;-48
2022/11/01 10:01:56;;;;;;;42.00;39.10;;;;;;;16.85;100.00;101039.88;5071147;28;20985;-49
2022/11/01 10:04:43;;;;;;;41.00;37.90;;;;;;;16.87;100.00;101049.41;5071619;28;20465;-50
2022/11/01 10:07:22;;;;;;;39.87;37.27;;;;;;;16.74;100.00;101043.38;5071341;28;20477;-49
2022/11/01 10:09:59;;;;;;;40.17;37.47;;;;;;;16.71;100.00;101046.53;5051260;28;20493;-45
2022/11/01 10:12:47;;;;;;;39.43;37.13;;;;;;;16.72;100.00;101057.09;5051016;28;20430;-46
2022/11/01 10:15:32;;;;;;;36.10;34.10;;;;;;;16.65;100.00;101056.34;5051247;28;20926;-48
2022/11/01 10:18:12;;;;;;;36.60;34.50;;;;;;;16.55;100.00;101069.53;5056888;28;20528;-47
2022/11/01 10:20:40;;;;;;;36.30;34.23;;;;;;;16.61;100.00;101073.22;5066344;28;20769;-46
2022/11/01 10:23:11;;;;;;;34.37;32.50;;;;;;;16.61;100.00;101074.00;5070914;28;20441;-49
2022/11/01 10:25:47;;;;;;;34.50;32.50;;;;;;;16.66;100.00;101076.84;5071261;28;20470;-46
2022/11/01 10:28:20;;;;;;;32.27;30.50;;;;;;;17.08;100.00;101066.91;5070653;28;20522;-49
2022/11/01 10:30:54;;;;;;;31.43;29.70;;;;;;;17.27;100.00;101067.63;5070996;28;20414;-46
2022/11/01 10:33:27;;;;;;;29.00;27.27;;;;;;;17.45;97.71;101062.97;5071123;28;20423;-49
2022/11/01 10:35:59;;;;;;;26.43;25.03;;;;;;;17.32;90.47;101060.50;5075086;28;20425;-50
2022/11/01 10:38:36;;;;;;;23.13;21.87;;;;;;;17.32;91.07;101084.75;5074084;28;20462;-46
2022/11/01 10:41:29;;;;;;;22.13;20.43;;;;;;;17.34;90.59;101076.44;5074438;28;20977;-44
2022/11/01 10:44:00;;;;;;;21.23;20.03;;;;;;;17.44;91.12;101076.69;5075093;28;20506;-48
2022/11/01 10:46:31;;;;;;;20.27;19.17;;;;;;;17.43;85.92;101077.72;5074627;28;20474;-49
2022/11/01 10:49:05;;;;;;;19.23;17.77;;;;;;;17.39;83.72;101090.03;5074039;28;20576;-47
2022/11/01 10:51:35;;;;;;;19.20;17.90;;;;;;;17.27;81.32;101091.88;5074506;28;20842;-47
2022/11/01 10:54:07;;;;;;;18.77;17.87;;;;;;;17.20;80.96;101086.63;5074393;28;20434;-50
2022/11/01 10:56:40;;;;;;;17.10;16.20;;;;;;;17.24;81.98;101086.94;5074725;28;20546;-43
2022/11/01 10:59:14;;;;;;;16.40;15.60;;;;;;;17.25;80.62;101094.00;5074048;28;20469;-49
2022/11/01 11:01:43;;;;;;;15.43;14.60;;;;;;;17.29;82.13;101089.78;5074333;28;20487;-44
2022/11/01 11:04:15;;;;;;;16.73;14.37;;;;;;;17.19;79.51;101086.84;5074412;28;20434;-48
2022/11/01 11:06:44;;;;;;;15.60;14.67;;;;;;;17.24;81.00;101095.03;5074407;28;20485;-46
2022/11/01 11:09:21;;;;;;;14.97;14.07;;;;;;;17.33;83.12;101099.03;5073863;28;20462;-44
2022/11/01 11:11:53;;;;;;;15.23;14.13;;;;;;;17.26;80.65;101092.94;5074151;28;20430;-44
2022/11/01 11:14:20;;;;;;;14.77;13.73;;;;;;;17.17;79.54;101105.94;5074317;28;20438;-44
2022/11/01 11:16:51;;;;;;;14.30;13.17;;;;;;;17.28;79.93;101104.31;5074128;28;20509;-47
2022/11/01 11:19:30;;;;;;;13.90;13.00;;;;;;;17.24;79.89;101114.72;5073818;28;20470;-47
2022/11/01 11:21:59;;;;;;;15.10;14.10;;;;;;;17.24;81.01;101098.56;5065092;28;20430;-44